<?xml version="1.0" encoding="UTF-8" ?>
<gpx version="1.1" xmlns:xsi="http://www.w3.org/2001/XMLSchema-instance" 
    xmlns="http://www.topografix.com/GPX/1/1"
    xsi:schemaLocation="http://www.topografix.com/GPX/1/1 http://www.topografix.com/GPX/1/1/gpx.xsd" 
    creator="Openrunner - https://www.openrunner.com" >	<trk>
	                   <name>Yzeron - Autour de Py Froid et du plan d&#039;eau-21973713</name>
						<trkseg>
					<trkpt lat="45.707790" lon="4.590680">
						<ele>711</ele>
						<time>2025-07-22T08:23:28Z</time>
					</trkpt>
					<trkpt lat="45.707770" lon="4.590660">
						<ele>711</ele>
						<time>2025-07-22T08:23:31Z</time>
					</trkpt>
					<trkpt lat="45.707750" lon="4.590860">
						<ele>712</ele>
						<time>2025-07-22T08:23:50Z</time>
					</trkpt>
					<trkpt lat="45.707650" lon="4.591030">
						<ele>711</ele>
						<time>2025-07-22T08:24:11Z</time>
					</trkpt>
					<trkpt lat="45.707570" lon="4.591090">
						<ele>711</ele>
						<time>2025-07-22T08:24:23Z</time>
					</trkpt>
					<trkpt lat="45.707330" lon="4.590960">
						<ele>716</ele>
						<time>2025-07-22T08:24:57Z</time>
					</trkpt>
					<trkpt lat="45.707140" lon="4.590990">
						<ele>718</ele>
						<time>2025-07-22T08:25:23Z</time>
					</trkpt>
					<trkpt lat="45.706930" lon="4.591030">
						<ele>721</ele>
						<time>2025-07-22T08:25:51Z</time>
					</trkpt>
					<trkpt lat="45.706470" lon="4.591500">
						<ele>725</ele>
						<time>2025-07-22T08:27:06Z</time>
					</trkpt>
					<trkpt lat="45.706410" lon="4.591510">
						<ele>725</ele>
						<time>2025-07-22T08:27:14Z</time>
					</trkpt>
					<trkpt lat="45.706260" lon="4.591400">
						<ele>725</ele>
						<time>2025-07-22T08:27:37Z</time>
					</trkpt>
					<trkpt lat="45.706210" lon="4.591370">
						<ele>725</ele>
						<time>2025-07-22T08:27:44Z</time>
					</trkpt>
					<trkpt lat="45.705930" lon="4.591870">
						<ele>726</ele>
						<time>2025-07-22T08:28:44Z</time>
					</trkpt>
					<trkpt lat="45.705640" lon="4.592330">
						<ele>727</ele>
						<time>2025-07-22T08:29:42Z</time>
					</trkpt>
					<trkpt lat="45.705490" lon="4.592580">
						<ele>727</ele>
						<time>2025-07-22T08:30:12Z</time>
					</trkpt>
					<trkpt lat="45.705420" lon="4.592780">
						<ele>726</ele>
						<time>2025-07-22T08:30:33Z</time>
					</trkpt>
					<trkpt lat="45.705390" lon="4.592920">
						<ele>726</ele>
						<time>2025-07-22T08:30:47Z</time>
					</trkpt>
					<trkpt lat="45.705400" lon="4.593040">
						<ele>725</ele>
						<time>2025-07-22T08:30:58Z</time>
					</trkpt>
					<trkpt lat="45.705530" lon="4.592970">
						<ele>724</ele>
						<time>2025-07-22T08:31:17Z</time>
					</trkpt>
					<trkpt lat="45.705400" lon="4.593040">
						<ele>725</ele>
						<time>2025-07-22T08:31:35Z</time>
					</trkpt>
					<trkpt lat="45.705110" lon="4.593110">
						<ele>729</ele>
						<time>2025-07-22T08:32:14Z</time>
					</trkpt>
					<trkpt lat="45.704600" lon="4.593190">
						<ele>728</ele>
						<time>2025-07-22T08:33:23Z</time>
					</trkpt>
					<trkpt lat="45.704310" lon="4.593990">
						<ele>732</ele>
						<time>2025-07-22T08:34:47Z</time>
					</trkpt>
					<trkpt lat="45.704140" lon="4.594500">
						<ele>737</ele>
						<time>2025-07-22T08:35:39Z</time>
					</trkpt>
					<trkpt lat="45.704040" lon="4.594830">
						<ele>739</ele>
						<time>2025-07-22T08:36:13Z</time>
					</trkpt>
					<trkpt lat="45.703900" lon="4.595490">
						<ele>746</ele>
						<time>2025-07-22T08:37:17Z</time>
					</trkpt>
					<trkpt lat="45.703890" lon="4.595760">
						<ele>749</ele>
						<time>2025-07-22T08:37:42Z</time>
					</trkpt>
					<trkpt lat="45.703890" lon="4.595780">
						<ele>749</ele>
						<time>2025-07-22T08:37:44Z</time>
					</trkpt>
					<trkpt lat="45.704420" lon="4.596210">
						<ele>754</ele>
						<time>2025-07-22T08:39:06Z</time>
					</trkpt>
					<trkpt lat="45.704640" lon="4.596880">
						<ele>757</ele>
						<time>2025-07-22T08:40:15Z</time>
					</trkpt>
					<trkpt lat="45.704820" lon="4.597650">
						<ele>761</ele>
						<time>2025-07-22T08:41:30Z</time>
					</trkpt>
					<trkpt lat="45.704950" lon="4.598940">
						<ele>759</ele>
						<time>2025-07-22T08:43:32Z</time>
					</trkpt>
					<trkpt lat="45.704940" lon="4.599350">
						<ele>758</ele>
						<time>2025-07-22T08:44:10Z</time>
					</trkpt>
					<trkpt lat="45.704710" lon="4.599890">
						<ele>766</ele>
						<time>2025-07-22T08:45:09Z</time>
					</trkpt>
					<trkpt lat="45.704600" lon="4.600370">
						<ele>769</ele>
						<time>2025-07-22T08:45:56Z</time>
					</trkpt>
					<trkpt lat="45.704660" lon="4.600850">
						<ele>764</ele>
						<time>2025-07-22T08:46:41Z</time>
					</trkpt>
					<trkpt lat="45.704600" lon="4.601200">
						<ele>767</ele>
						<time>2025-07-22T08:47:15Z</time>
					</trkpt>
					<trkpt lat="45.704630" lon="4.601390">
						<ele>765</ele>
						<time>2025-07-22T08:47:33Z</time>
					</trkpt>
					<trkpt lat="45.704680" lon="4.601650">
						<ele>763</ele>
						<time>2025-07-22T08:47:58Z</time>
					</trkpt>
					<trkpt lat="45.704600" lon="4.602650">
						<ele>772</ele>
						<time>2025-07-22T08:49:32Z</time>
					</trkpt>
					<trkpt lat="45.704720" lon="4.603700">
						<ele>777</ele>
						<time>2025-07-22T08:51:11Z</time>
					</trkpt>
					<trkpt lat="45.704930" lon="4.604280">
						<ele>772</ele>
						<time>2025-07-22T08:52:12Z</time>
					</trkpt>
					<trkpt lat="45.704950" lon="4.605120">
						<ele>771</ele>
						<time>2025-07-22T08:53:30Z</time>
					</trkpt>
					<trkpt lat="45.704870" lon="4.605600">
						<ele>773</ele>
						<time>2025-07-22T08:54:16Z</time>
					</trkpt>
					<trkpt lat="45.704750" lon="4.606090">
						<ele>773</ele>
						<time>2025-07-22T08:55:05Z</time>
					</trkpt>
					<trkpt lat="45.704650" lon="4.606390">
						<ele>772</ele>
						<time>2025-07-22T08:55:36Z</time>
					</trkpt>
					<trkpt lat="45.704350" lon="4.606800">
						<ele>774</ele>
						<time>2025-07-22T08:56:31Z</time>
					</trkpt>
					<trkpt lat="45.704200" lon="4.606960">
						<ele>774</ele>
						<time>2025-07-22T08:56:56Z</time>
					</trkpt>
					<trkpt lat="45.704080" lon="4.607070">
						<ele>774</ele>
						<time>2025-07-22T08:57:15Z</time>
					</trkpt>
					<trkpt lat="45.703910" lon="4.607160">
						<ele>773</ele>
						<time>2025-07-22T08:57:39Z</time>
					</trkpt>
					<trkpt lat="45.703830" lon="4.607210">
						<ele>773</ele>
						<time>2025-07-22T08:57:51Z</time>
					</trkpt>
					<trkpt lat="45.703130" lon="4.607390">
						<ele>773</ele>
						<time>2025-07-22T08:59:26Z</time>
					</trkpt>
					<trkpt lat="45.702400" lon="4.607420">
						<ele>775</ele>
						<time>2025-07-22T09:01:03Z</time>
					</trkpt>
					<trkpt lat="45.701860" lon="4.607480">
						<ele>775</ele>
						<time>2025-07-22T09:02:16Z</time>
					</trkpt>
					<trkpt lat="45.701710" lon="4.607490">
						<ele>775</ele>
						<time>2025-07-22T09:02:36Z</time>
					</trkpt>
					<trkpt lat="45.701630" lon="4.607160">
						<ele>775</ele>
						<time>2025-07-22T09:03:08Z</time>
					</trkpt>
					<trkpt lat="45.701560" lon="4.606760">
						<ele>774</ele>
						<time>2025-07-22T09:03:47Z</time>
					</trkpt>
					<trkpt lat="45.701440" lon="4.605860">
						<ele>782</ele>
						<time>2025-07-22T09:05:12Z</time>
					</trkpt>
					<trkpt lat="45.700870" lon="4.605140">
						<ele>786</ele>
						<time>2025-07-22T09:06:53Z</time>
					</trkpt>
					<trkpt lat="45.700470" lon="4.604450">
						<ele>782</ele>
						<time>2025-07-22T09:08:17Z</time>
					</trkpt>
					<trkpt lat="45.700350" lon="4.603890">
						<ele>779</ele>
						<time>2025-07-22T09:09:12Z</time>
					</trkpt>
					<trkpt lat="45.700430" lon="4.603640">
						<ele>781</ele>
						<time>2025-07-22T09:09:37Z</time>
					</trkpt>
					<trkpt lat="45.700540" lon="4.603270">
						<ele>783</ele>
						<time>2025-07-22T09:10:15Z</time>
					</trkpt>
					<trkpt lat="45.700740" lon="4.602890">
						<ele>785</ele>
						<time>2025-07-22T09:10:59Z</time>
					</trkpt>
					<trkpt lat="45.701200" lon="4.602250">
						<ele>791</ele>
						<time>2025-07-22T09:12:25Z</time>
					</trkpt>
					<trkpt lat="45.701540" lon="4.601710">
						<ele>795</ele>
						<time>2025-07-22T09:13:32Z</time>
					</trkpt>
					<trkpt lat="45.701560" lon="4.601690">
						<ele>795</ele>
						<time>2025-07-22T09:13:36Z</time>
					</trkpt>
					<trkpt lat="45.702050" lon="4.601160">
						<ele>801</ele>
						<time>2025-07-22T09:14:58Z</time>
					</trkpt>
					<trkpt lat="45.702270" lon="4.600720">
						<ele>801</ele>
						<time>2025-07-22T09:15:48Z</time>
					</trkpt>
					<trkpt lat="45.702440" lon="4.600470">
						<ele>802</ele>
						<time>2025-07-22T09:16:21Z</time>
					</trkpt>
					<trkpt lat="45.702640" lon="4.600010">
						<ele>800</ele>
						<time>2025-07-22T09:17:11Z</time>
					</trkpt>
					<trkpt lat="45.702710" lon="4.599510">
						<ele>795</ele>
						<time>2025-07-22T09:17:59Z</time>
					</trkpt>
					<trkpt lat="45.702800" lon="4.598940">
						<ele>790</ele>
						<time>2025-07-22T09:18:53Z</time>
					</trkpt>
					<trkpt lat="45.702830" lon="4.598430">
						<ele>783</ele>
						<time>2025-07-22T09:19:41Z</time>
					</trkpt>
					<trkpt lat="45.703050" lon="4.597590">
						<ele>773</ele>
						<time>2025-07-22T09:21:04Z</time>
					</trkpt>
					<trkpt lat="45.703120" lon="4.597170">
						<ele>767</ele>
						<time>2025-07-22T09:21:45Z</time>
					</trkpt>
					<trkpt lat="45.703240" lon="4.596830">
						<ele>763</ele>
						<time>2025-07-22T09:22:20Z</time>
					</trkpt>
					<trkpt lat="45.703610" lon="4.596260">
						<ele>755</ele>
						<time>2025-07-22T09:23:33Z</time>
					</trkpt>
					<trkpt lat="45.703700" lon="4.596070">
						<ele>752</ele>
						<time>2025-07-22T09:23:54Z</time>
					</trkpt>
					<trkpt lat="45.703760" lon="4.595940">
						<ele>750</ele>
						<time>2025-07-22T09:24:09Z</time>
					</trkpt>
					<trkpt lat="45.703890" lon="4.595780">
						<ele>749</ele>
						<time>2025-07-22T09:24:31Z</time>
					</trkpt>
					<trkpt lat="45.703890" lon="4.595760">
						<ele>749</ele>
						<time>2025-07-22T09:24:33Z</time>
					</trkpt>
					<trkpt lat="45.703900" lon="4.595490">
						<ele>746</ele>
						<time>2025-07-22T09:24:59Z</time>
					</trkpt>
					<trkpt lat="45.704040" lon="4.594830">
						<ele>739</ele>
						<time>2025-07-22T09:26:03Z</time>
					</trkpt>
					<trkpt lat="45.704140" lon="4.594500">
						<ele>737</ele>
						<time>2025-07-22T09:26:36Z</time>
					</trkpt>
					<trkpt lat="45.704310" lon="4.593990">
						<ele>732</ele>
						<time>2025-07-22T09:27:29Z</time>
					</trkpt>
					<trkpt lat="45.704600" lon="4.593190">
						<ele>728</ele>
						<time>2025-07-22T09:28:53Z</time>
					</trkpt>
					<trkpt lat="45.704970" lon="4.592960">
						<ele>729</ele>
						<time>2025-07-22T09:29:47Z</time>
					</trkpt>
					<trkpt lat="45.705490" lon="4.592580">
						<ele>727</ele>
						<time>2025-07-22T09:31:05Z</time>
					</trkpt>
					<trkpt lat="45.705640" lon="4.592330">
						<ele>727</ele>
						<time>2025-07-22T09:31:35Z</time>
					</trkpt>
					<trkpt lat="45.705760" lon="4.592140">
						<ele>727</ele>
						<time>2025-07-22T09:31:59Z</time>
					</trkpt>
					<trkpt lat="45.705930" lon="4.591870">
						<ele>726</ele>
						<time>2025-07-22T09:32:33Z</time>
					</trkpt>
					<trkpt lat="45.706210" lon="4.591370">
						<ele>725</ele>
						<time>2025-07-22T09:33:33Z</time>
					</trkpt>
					<trkpt lat="45.706300" lon="4.591030">
						<ele>724</ele>
						<time>2025-07-22T09:34:07Z</time>
					</trkpt>
					<trkpt lat="45.706320" lon="4.590860">
						<ele>724</ele>
						<time>2025-07-22T09:34:23Z</time>
					</trkpt>
					<trkpt lat="45.706330" lon="4.590760">
						<ele>723</ele>
						<time>2025-07-22T09:34:32Z</time>
					</trkpt>
					<trkpt lat="45.706300" lon="4.590760">
						<ele>723</ele>
						<time>2025-07-22T09:34:36Z</time>
					</trkpt>
					<trkpt lat="45.706330" lon="4.590760">
						<ele>723</ele>
						<time>2025-07-22T09:34:40Z</time>
					</trkpt>
					<trkpt lat="45.706400" lon="4.590180">
						<ele>723</ele>
						<time>2025-07-22T09:35:35Z</time>
					</trkpt>
					<trkpt lat="45.706400" lon="4.590080">
						<ele>723</ele>
						<time>2025-07-22T09:35:44Z</time>
					</trkpt>
					<trkpt lat="45.706400" lon="4.590020">
						<ele>723</ele>
						<time>2025-07-22T09:35:50Z</time>
					</trkpt>
					<trkpt lat="45.706370" lon="4.589620">
						<ele>722</ele>
						<time>2025-07-22T09:36:28Z</time>
					</trkpt>
					<trkpt lat="45.706240" lon="4.589070">
						<ele>720</ele>
						<time>2025-07-22T09:37:22Z</time>
					</trkpt>
					<trkpt lat="45.706260" lon="4.588740">
						<ele>721</ele>
						<time>2025-07-22T09:37:53Z</time>
					</trkpt>
					<trkpt lat="45.706340" lon="4.588340">
						<ele>722</ele>
						<time>2025-07-22T09:38:31Z</time>
					</trkpt>
					<trkpt lat="45.706580" lon="4.587930">
						<ele>725</ele>
						<time>2025-07-22T09:39:21Z</time>
					</trkpt>
					<trkpt lat="45.706640" lon="4.587710">
						<ele>725</ele>
						<time>2025-07-22T09:39:43Z</time>
					</trkpt>
					<trkpt lat="45.706660" lon="4.587450">
						<ele>725</ele>
						<time>2025-07-22T09:40:08Z</time>
					</trkpt>
					<trkpt lat="45.706630" lon="4.586870">
						<ele>723</ele>
						<time>2025-07-22T09:41:02Z</time>
					</trkpt>
					<trkpt lat="45.706610" lon="4.586670">
						<ele>722</ele>
						<time>2025-07-22T09:41:21Z</time>
					</trkpt>
					<trkpt lat="45.706630" lon="4.586550">
						<ele>722</ele>
						<time>2025-07-22T09:41:32Z</time>
					</trkpt>
					<trkpt lat="45.706660" lon="4.586550">
						<ele>722</ele>
						<time>2025-07-22T09:41:36Z</time>
					</trkpt>
					<trkpt lat="45.706890" lon="4.586530">
						<ele>719</ele>
						<time>2025-07-22T09:42:07Z</time>
					</trkpt>
					<trkpt lat="45.706820" lon="4.585350">
						<ele>717</ele>
						<time>2025-07-22T09:43:57Z</time>
					</trkpt>
					<trkpt lat="45.706770" lon="4.585090">
						<ele>717</ele>
						<time>2025-07-22T09:44:22Z</time>
					</trkpt>
					<trkpt lat="45.706750" lon="4.585020">
						<ele>718</ele>
						<time>2025-07-22T09:44:29Z</time>
					</trkpt>
					<trkpt lat="45.706770" lon="4.585090">
						<ele>717</ele>
						<time>2025-07-22T09:44:36Z</time>
					</trkpt>
					<trkpt lat="45.706870" lon="4.584990">
						<ele>716</ele>
						<time>2025-07-22T09:44:53Z</time>
					</trkpt>
					<trkpt lat="45.707020" lon="4.584650">
						<ele>715</ele>
						<time>2025-07-22T09:45:30Z</time>
					</trkpt>
					<trkpt lat="45.707150" lon="4.584420">
						<ele>714</ele>
						<time>2025-07-22T09:45:58Z</time>
					</trkpt>
					<trkpt lat="45.707240" lon="4.584220">
						<ele>714</ele>
						<time>2025-07-22T09:46:20Z</time>
					</trkpt>
					<trkpt lat="45.707290" lon="4.583930">
						<ele>714</ele>
						<time>2025-07-22T09:46:48Z</time>
					</trkpt>
					<trkpt lat="45.707280" lon="4.583670">
						<ele>716</ele>
						<time>2025-07-22T09:47:12Z</time>
					</trkpt>
					<trkpt lat="45.707290" lon="4.583540">
						<ele>716</ele>
						<time>2025-07-22T09:47:24Z</time>
					</trkpt>
					<trkpt lat="45.707310" lon="4.583360">
						<ele>717</ele>
						<time>2025-07-22T09:47:41Z</time>
					</trkpt>
					<trkpt lat="45.707320" lon="4.583320">
						<ele>717</ele>
						<time>2025-07-22T09:47:45Z</time>
					</trkpt>
					<trkpt lat="45.707350" lon="4.583180">
						<ele>717</ele>
						<time>2025-07-22T09:47:59Z</time>
					</trkpt>
					<trkpt lat="45.707580" lon="4.582250">
						<ele>717</ele>
						<time>2025-07-22T09:49:31Z</time>
					</trkpt>
					<trkpt lat="45.707610" lon="4.582140">
						<ele>718</ele>
						<time>2025-07-22T09:49:42Z</time>
					</trkpt>
					<trkpt lat="45.707760" lon="4.582030">
						<ele>717</ele>
						<time>2025-07-22T09:50:04Z</time>
					</trkpt>
					<trkpt lat="45.707830" lon="4.581850">
						<ele>718</ele>
						<time>2025-07-22T09:50:23Z</time>
					</trkpt>
					<trkpt lat="45.707880" lon="4.581720">
						<ele>718</ele>
						<time>2025-07-22T09:50:37Z</time>
					</trkpt>
					<trkpt lat="45.708040" lon="4.581160">
						<ele>716</ele>
						<time>2025-07-22T09:51:34Z</time>
					</trkpt>
					<trkpt lat="45.708070" lon="4.581040">
						<ele>716</ele>
						<time>2025-07-22T09:51:46Z</time>
					</trkpt>
					<trkpt lat="45.708120" lon="4.580780">
						<ele>716</ele>
						<time>2025-07-22T09:52:11Z</time>
					</trkpt>
					<trkpt lat="45.708210" lon="4.580490">
						<ele>715</ele>
						<time>2025-07-22T09:52:40Z</time>
					</trkpt>
					<trkpt lat="45.708220" lon="4.580470">
						<ele>714</ele>
						<time>2025-07-22T09:52:43Z</time>
					</trkpt>
					<trkpt lat="45.708400" lon="4.579870">
						<ele>713</ele>
						<time>2025-07-22T09:53:43Z</time>
					</trkpt>
					<trkpt lat="45.708490" lon="4.579680">
						<ele>714</ele>
						<time>2025-07-22T09:54:05Z</time>
					</trkpt>
					<trkpt lat="45.708710" lon="4.579550">
						<ele>714</ele>
						<time>2025-07-22T09:54:37Z</time>
					</trkpt>
					<trkpt lat="45.709060" lon="4.579320">
						<ele>715</ele>
						<time>2025-07-22T09:55:28Z</time>
					</trkpt>
					<trkpt lat="45.709280" lon="4.579180">
						<ele>715</ele>
						<time>2025-07-22T09:56:00Z</time>
					</trkpt>
					<trkpt lat="45.709620" lon="4.579030">
						<ele>715</ele>
						<time>2025-07-22T09:56:48Z</time>
					</trkpt>
					<trkpt lat="45.709920" lon="4.578830">
						<ele>716</ele>
						<time>2025-07-22T09:57:32Z</time>
					</trkpt>
					<trkpt lat="45.709990" lon="4.578740">
						<ele>717</ele>
						<time>2025-07-22T09:57:44Z</time>
					</trkpt>
					<trkpt lat="45.709920" lon="4.578830">
						<ele>716</ele>
						<time>2025-07-22T09:57:57Z</time>
					</trkpt>
					<trkpt lat="45.709930" lon="4.578890">
						<ele>715</ele>
						<time>2025-07-22T09:58:03Z</time>
					</trkpt>
					<trkpt lat="45.709960" lon="4.579030">
						<ele>714</ele>
						<time>2025-07-22T09:58:16Z</time>
					</trkpt>
					<trkpt lat="45.709960" lon="4.579190">
						<ele>712</ele>
						<time>2025-07-22T09:58:31Z</time>
					</trkpt>
					<trkpt lat="45.709980" lon="4.579440">
						<ele>713</ele>
						<time>2025-07-22T09:58:55Z</time>
					</trkpt>
					<trkpt lat="45.709780" lon="4.579820">
						<ele>714</ele>
						<time>2025-07-22T09:59:39Z</time>
					</trkpt>
					<trkpt lat="45.709560" lon="4.580370">
						<ele>715</ele>
						<time>2025-07-22T10:00:38Z</time>
					</trkpt>
					<trkpt lat="45.709370" lon="4.580990">
						<ele>715</ele>
						<time>2025-07-22T10:01:41Z</time>
					</trkpt>
					<trkpt lat="45.709270" lon="4.581300">
						<ele>714</ele>
						<time>2025-07-22T10:02:13Z</time>
					</trkpt>
					<trkpt lat="45.709210" lon="4.581540">
						<ele>713</ele>
						<time>2025-07-22T10:02:37Z</time>
					</trkpt>
					<trkpt lat="45.709100" lon="4.581910">
						<ele>713</ele>
						<time>2025-07-22T10:03:14Z</time>
					</trkpt>
					<trkpt lat="45.709070" lon="4.582040">
						<ele>713</ele>
						<time>2025-07-22T10:03:27Z</time>
					</trkpt>
					<trkpt lat="45.709050" lon="4.582280">
						<ele>713</ele>
						<time>2025-07-22T10:03:49Z</time>
					</trkpt>
					<trkpt lat="45.709060" lon="4.582410">
						<ele>714</ele>
						<time>2025-07-22T10:04:02Z</time>
					</trkpt>
					<trkpt lat="45.709060" lon="4.582430">
						<ele>714</ele>
						<time>2025-07-22T10:04:03Z</time>
					</trkpt>
					<trkpt lat="45.709030" lon="4.582590">
						<ele>714</ele>
						<time>2025-07-22T10:04:19Z</time>
					</trkpt>
					<trkpt lat="45.707760" lon="4.582030">
						<ele>717</ele>
						<time>2025-07-22T10:07:16Z</time>
					</trkpt>
					<trkpt lat="45.707830" lon="4.581850">
						<ele>718</ele>
						<time>2025-07-22T10:07:35Z</time>
					</trkpt>
					<trkpt lat="45.707760" lon="4.582030">
						<ele>717</ele>
						<time>2025-07-22T10:07:55Z</time>
					</trkpt>
					<trkpt lat="45.707610" lon="4.582140">
						<ele>718</ele>
						<time>2025-07-22T10:08:17Z</time>
					</trkpt>
					<trkpt lat="45.707580" lon="4.582250">
						<ele>717</ele>
						<time>2025-07-22T10:08:28Z</time>
					</trkpt>
					<trkpt lat="45.707350" lon="4.583180">
						<ele>717</ele>
						<time>2025-07-22T10:10:00Z</time>
					</trkpt>
					<trkpt lat="45.707320" lon="4.583320">
						<ele>717</ele>
						<time>2025-07-22T10:10:14Z</time>
					</trkpt>
					<trkpt lat="45.707310" lon="4.583360">
						<ele>717</ele>
						<time>2025-07-22T10:10:18Z</time>
					</trkpt>
					<trkpt lat="45.707290" lon="4.583540">
						<ele>716</ele>
						<time>2025-07-22T10:10:35Z</time>
					</trkpt>
					<trkpt lat="45.707280" lon="4.583670">
						<ele>716</ele>
						<time>2025-07-22T10:10:47Z</time>
					</trkpt>
					<trkpt lat="45.707290" lon="4.583930">
						<ele>714</ele>
						<time>2025-07-22T10:11:11Z</time>
					</trkpt>
					<trkpt lat="45.707240" lon="4.584220">
						<ele>714</ele>
						<time>2025-07-22T10:11:39Z</time>
					</trkpt>
					<trkpt lat="45.707150" lon="4.584420">
						<ele>714</ele>
						<time>2025-07-22T10:12:01Z</time>
					</trkpt>
					<trkpt lat="45.707020" lon="4.584650">
						<ele>715</ele>
						<time>2025-07-22T10:12:29Z</time>
					</trkpt>
					<trkpt lat="45.706870" lon="4.584990">
						<ele>716</ele>
						<time>2025-07-22T10:13:06Z</time>
					</trkpt>
					<trkpt lat="45.706770" lon="4.585090">
						<ele>717</ele>
						<time>2025-07-22T10:13:22Z</time>
					</trkpt>
					<trkpt lat="45.706820" lon="4.585350">
						<ele>717</ele>
						<time>2025-07-22T10:13:48Z</time>
					</trkpt>
					<trkpt lat="45.706890" lon="4.586530">
						<ele>719</ele>
						<time>2025-07-22T10:15:38Z</time>
					</trkpt>
					<trkpt lat="45.707020" lon="4.587070">
						<ele>718</ele>
						<time>2025-07-22T10:16:31Z</time>
					</trkpt>
					<trkpt lat="45.707050" lon="4.587190">
						<ele>717</ele>
						<time>2025-07-22T10:16:43Z</time>
					</trkpt>
					<trkpt lat="45.707080" lon="4.587440">
						<ele>717</ele>
						<time>2025-07-22T10:17:07Z</time>
					</trkpt>
					<trkpt lat="45.707130" lon="4.587930">
						<ele>716</ele>
						<time>2025-07-22T10:17:53Z</time>
					</trkpt>
					<trkpt lat="45.707140" lon="4.588280">
						<ele>715</ele>
						<time>2025-07-22T10:18:25Z</time>
					</trkpt>
					<trkpt lat="45.707140" lon="4.588620">
						<ele>715</ele>
						<time>2025-07-22T10:18:57Z</time>
					</trkpt>
					<trkpt lat="45.707140" lon="4.588960">
						<ele>716</ele>
						<time>2025-07-22T10:19:29Z</time>
					</trkpt>
					<trkpt lat="45.707140" lon="4.589050">
						<ele>716</ele>
						<time>2025-07-22T10:19:37Z</time>
					</trkpt>
					<trkpt lat="45.707210" lon="4.589140">
						<ele>714</ele>
						<time>2025-07-22T10:19:50Z</time>
					</trkpt>
					<trkpt lat="45.707360" lon="4.589200">
						<ele>711</ele>
						<time>2025-07-22T10:20:11Z</time>
					</trkpt>
					<trkpt lat="45.707600" lon="4.590200">
						<ele>712</ele>
						<time>2025-07-22T10:21:49Z</time>
					</trkpt>
					<trkpt lat="45.707600" lon="4.590230">
						<ele>712</ele>
						<time>2025-07-22T10:21:52Z</time>
					</trkpt>
					<trkpt lat="45.707660" lon="4.590330">
						<ele>711</ele>
						<time>2025-07-22T10:22:04Z</time>
					</trkpt>
					<trkpt lat="45.707730" lon="4.590420">
						<ele>711</ele>
						<time>2025-07-22T10:22:17Z</time>
					</trkpt>
					<trkpt lat="45.707750" lon="4.590550">
						<ele>711</ele>
						<time>2025-07-22T10:22:29Z</time>
					</trkpt>
					<trkpt lat="45.707770" lon="4.590660">
						<ele>711</ele>
						<time>2025-07-22T10:22:40Z</time>
					</trkpt>
					<trkpt lat="45.707790" lon="4.590680">
						<ele>711</ele>
						<time>2025-07-22T10:22:43Z</time>
					</trkpt>
					</trkseg>
				</trk>
			</gpx>